Time;durP1;ratioP1;P1;durP2;ratioP2;P2;SDS_P1;SDS_P2;PMS_P1;PMS_P2;Temp;Humidity;BMP_temperature;BMP_pressure;BME280_temperature;BME280_humidity;BME280_pressure;Samples;Min_cycle;Max_cycle;Signal;HPM_P1;HPM_P2
2022/06/15 00:01:02;;;;;;;8.73;3.72;;;18.50;99.90;;;;;;4934401;29;20259;-85
2022/06/15 00:03:31;;;;;;;7.10;4.22;;;18.20;99.90;;;;;;4934809;29;20040;-85
2022/06/15 00:06:11;;;;;;;9.70;4.40;;;18.00;99.90;;;;;;4935018;29;20031;-84
2022/06/15 00:08:38;;;;;;;9.68;4.00;;;17.70;99.90;;;;;;4931127;29;20044;-86
2022/06/15 00:11:38;;;;;;;10.02;4.20;;;17.50;99.90;;;;;;4935932;29;20103;-83
2022/06/15 00:14:20;;;;;;;8.40;4.22;;;17.40;99.90;;;;;;4926817;29;20048;-86
2022/06/15 00:16:45;;;;;;;9.25;4.22;;;17.30;99.90;;;;;;4929321;29;20036;-85
2022/06/15 00:19:12;;;;;;;11.50;4.10;;;17.20;99.90;;;;;;4926199;29;20084;-85
2022/06/15 00:21:38;;;;;;;6.38;3.85;;;17.00;99.90;;;;;;4925050;29;20060;-85
2022/06/15 00:24:04;;;;;;;9.45;3.38;;;17.00;99.90;;;;;;4924969;29;20047;-86
2022/06/15 00:26:30;;;;;;;10.90;3.30;;;17.20;99.90;;;;;;4938885;29;20115;-85
2022/06/15 00:28:56;;;;;;;7.95;3.72;;;17.30;99.90;;;;;;4941504;29;20047;-86
2022/06/15 00:31:22;;;;;;;7.97;3.75;;;17.30;99.90;;;;;;4941596;29;20028;-83
2022/06/15 00:33:48;;;;;;;8.00;4.03;;;17.30;99.90;;;;;;4945300;29;20028;-83
2022/06/15 00:36:21;;;;;;;7.50;3.70;;;17.20;99.90;;;;;;4944285;29;20111;-83
2022/06/15 00:38:49;;;;;;;12.98;5.05;;;17.10;99.90;;;;;;4932912;29;20040;-85
2022/06/15 00:41:20;;;;;;;8.82;3.13;;;17.00;99.90;;;;;;4932599;29;20028;-85
2022/06/15 00:43:54;;;;;;;9.48;4.20;;;17.00;99.90;;;;;;4936654;29;20036;-86
2022/06/15 00:46:26;;;;;;;4.80;3.55;;;17.00;99.90;;;;;;4937344;29;20091;-85
2022/06/15 00:49:08;;;;;;;11.68;3.13;;;16.80;99.90;;;;;;4938183;29;20024;-85
2022/06/15 00:51:36;;;;;;;8.88;3.83;;;16.60;99.90;;;;;;4932098;29;20048;-86
2022/06/15 00:54:03;;;;;;;5.90;3.33;;;16.50;99.90;;;;;;4933079;29;20396;-82
2022/06/15 00:56:31;;;;;;;11.40;3.55;;;16.40;99.90;;;;;;4936846;29;20039;-85
2022/06/15 00:59:03;;;;;;;5.78;3.30;;;16.30;99.90;;;;;;4939137;29;20032;-83
2022/06/15 01:01:29;;;;;;;7.53;3.17;;;16.30;99.90;;;;;;4941356;29;20028;-83
2022/06/15 01:03:58;;;;;;;6.90;3.20;;;16.20;99.90;;;;;;4939700;29;20100;-84
2022/06/15 01:06:48;;;;;;;6.80;3.38;;;16.10;99.90;;;;;;4939741;29;20031;-84
2022/06/15 01:09:24;;;;;;;6.88;3.20;;;16.10;99.90;;;;;;4939522;29;20036;-85
2022/06/15 01:12:36;;;;;;;5.60;3.15;;;16.00;99.90;;;;;;4942708;29;20088;-85
2022/06/15 01:15:26;;;;;;;8.90;4.10;;;16.00;99.90;;;;;;4876300;29;20037;-83
2022/06/15 01:18:16;;;;;;;11.45;5.50;;;15.90;99.90;;;;;;4932138;29;20126;-87
2022/06/15 01:21:26;;;;;;;16.10;4.30;;;15.90;99.90;;;;;;4936141;29;20012;-84
2022/06/15 01:24:29;;;;;;;8.55;3.80;;;15.90;99.90;;;;;;4884586;29;20090;-84
2022/06/15 01:27:07;;;;;;;9.48;4.05;;;15.80;99.90;;;;;;4943074;29;20105;-84
2022/06/15 01:29:55;;;;;;;12.95;4.53;;;15.80;99.90;;;;;;4938176;29;20109;-84
2022/06/15 01:32:42;;;;;;;9.50;3.90;;;15.70;99.90;;;;;;4942507;29;20044;-83
2022/06/15 01:35:20;;;;;;;8.75;3.60;;;15.70;99.90;;;;;;4927773;29;20039;-82
2022/06/15 01:38:19;;;;;;;14.60;4.30;;;15.70;99.90;;;;;;4941808;29;20020;-83
2022/06/15 01:40:49;;;;;;;5.68;3.58;;;15.80;99.90;;;;;;4940809;29;20073;-83
2022/06/15 01:43:19;;;;;;;6.93;3.50;;;15.70;99.90;;;;;;4935192;29;20040;-86
2022/06/15 01:45:47;;;;;;;10.65;4.15;;;15.60;99.90;;;;;;4937350;29;20036;-86
2022/06/15 01:48:17;;;;;;;9.13;4.85;;;15.60;99.90;;;;;;4931231;29;20044;-84
2022/06/15 01:50:52;;;;;;;10.18;3.95;;;15.60;99.90;;;;;;4932340;29;20004;-84
2022/06/15 01:53:34;;;;;;;11.52;4.38;;;15.60;99.90;;;;;;4944043;29;20040;-82
2022/06/15 01:56:02;;;;;;;19.30;5.90;;;15.60;99.90;;;;;;4943717;29;20024;-82
2022/06/15 01:58:30;;;;;;;10.18;5.18;;;15.50;99.90;;;;;;4942901;29;20024;-82
2022/06/15 02:01:21;;;;;;;9.73;5.70;;;15.50;99.90;;;;;;4943110;29;20043;-83
2022/06/15 02:04:04;;;;;;;9.10;5.05;;;15.60;99.90;;;;;;4929423;29;20087;-82
2022/06/15 02:07:05;;;;;;;10.52;5.15;;;15.60;99.90;;;;;;4942796;29;20028;-81
2022/06/15 02:10:15;;;;;;;10.57;5.10;;;15.60;99.90;;;;;;4938936;29;20052;-82
2022/06/15 02:13:05;;;;;;;10.95;5.03;;;15.40;99.90;;;;;;4892248;29;20045;-82
2022/06/15 02:15:36;;;;;;;13.02;5.55;;;15.40;99.90;;;;;;4941866;29;20024;-83
2022/06/15 02:18:10;;;;;;;10.35;6.60;;;15.40;99.90;;;;;;4942398;29;20021;-83
2022/06/15 02:20:41;;;;;;;13.88;5.93;;;15.30;99.90;;;;;;4926713;29;20020;-82
2022/06/15 02:23:11;;;;;;;11.18;5.10;;;15.40;99.90;;;;;;4942144;29;20047;-83
2022/06/15 02:25:41;;;;;;;9.70;5.82;;;15.30;99.90;;;;;;4924546;29;20089;-85
2022/06/15 02:28:11;;;;;;;11.57;5.45;;;15.30;99.90;;;;;;4933369;29;20068;-86
2022/06/15 02:30:40;;;;;;;12.70;5.40;;;15.30;99.90;;;;;;4930508;29;20028;-86
2022/06/15 02:33:29;;;;;;;11.52;5.13;;;15.30;99.90;;;;;;4932105;29;20020;-83
2022/06/15 02:35:59;;;;;;;11.88;5.97;;;15.30;99.90;;;;;;4935750;29;20099;-85
2022/06/15 02:38:26;;;;;;;8.35;5.68;;;15.30;99.90;;;;;;4935760;29;20092;-85
2022/06/15 02:40:53;;;;;;;9.32;5.15;;;15.30;99.90;;;;;;4930282;29;20049;-85
2022/06/15 02:43:24;;;;;;;8.45;5.28;;;15.40;99.90;;;;;;4940286;29;20032;-84
2022/06/15 02:45:53;;;;;;;8.20;5.78;;;15.40;99.90;;;;;;4941149;29;20052;-84
2022/06/15 02:48:23;;;;;;;12.38;5.75;;;15.40;99.90;;;;;;4924386;29;20094;-86
2022/06/15 02:51:00;;;;;;;12.65;6.72;;;15.40;99.90;;;;;;4930509;29;20047;-85
2022/06/15 02:53:29;;;;;;;12.25;5.88;;;15.40;99.90;;;;;;4929175;29;20016;-86
2022/06/15 02:55:58;;;;;;;7.57;4.90;;;15.30;99.90;;;;;;4928542;29;20046;-86
2022/06/15 02:58:36;;;;;;;6.82;4.40;;;15.30;99.90;;;;;;4928387;29;20500;-83
2022/06/15 03:01:02;;;;;;;7.30;4.70;;;15.30;99.90;;;;;;4929721;29;20044;-87
2022/06/15 03:03:30;;;;;;;10.02;5.07;;;15.30;99.90;;;;;;4933289;29;20452;-86
2022/06/15 03:06:27;;;;;;;11.95;5.50;;;15.30;99.90;;;;;;4931756;29;20400;-85
2022/06/15 03:08:57;;;;;;;8.18;5.07;;;15.20;99.90;;;;;;4917324;29;20088;-85
2022/06/15 03:11:33;;;;;;;8.27;4.75;;;15.20;99.90;;;;;;4936532;29;20485;-85
2022/06/15 03:14:07;;;;;;;10.73;4.50;;;15.30;99.90;;;;;;4926821;29;20039;-87
2022/06/15 03:16:34;;;;;;;9.00;4.85;;;15.40;99.90;;;;;;4927872;24;20050;-77
2022/06/15 03:19:00;;;;;;;10.90;4.80;;;15.50;99.90;;;;;;4931002;29;20031;-77
2022/06/15 03:21:27;;;;;;;6.57;5.05;;;15.60;99.90;;;;;;4948100;29;20035;-78
2022/06/15 03:23:54;;;;;;;13.57;5.13;;;15.60;99.90;;;;;;4949109;29;20031;-77
2022/06/15 03:26:20;;;;;;;7.35;4.40;;;15.60;99.90;;;;;;4944725;29;20027;-78
2022/06/15 03:28:46;;;;;;;11.13;5.13;;;15.70;99.90;;;;;;4922991;29;20087;-77
2022/06/15 03:31:15;;;;;;;9.07;4.80;;;15.80;99.90;;;;;;4922718;29;20023;-78
2022/06/15 03:33:42;;;;;;;8.20;4.50;;;15.80;99.90;;;;;;4941198;29;20087;-78
2022/06/15 03:36:13;;;;;;;8.25;4.22;;;15.80;99.90;;;;;;4906647;29;20032;-78
2022/06/15 03:38:38;;;;;;;8.23;4.80;;;15.90;99.90;;;;;;4923432;29;20051;-78
2022/06/15 03:41:14;;;;;;;8.63;3.85;;;15.90;99.90;;;;;;4922916;29;20062;-79
2022/06/15 03:43:40;;;;;;;9.45;4.93;;;15.90;99.90;;;;;;4923368;29;20480;-77
2022/06/15 03:46:06;;;;;;;14.27;4.50;;;16.00;99.90;;;;;;4940461;29;20055;-79
2022/06/15 03:48:36;;;;;;;8.88;4.72;;;16.00;99.90;;;;;;4930025;29;20032;-77
2022/06/15 03:51:02;;;;;;;8.60;3.55;;;16.10;99.90;;;;;;4928193;29;20058;-79
2022/06/15 03:53:32;;;;;;;9.23;3.70;;;16.10;99.90;;;;;;4933507;29;20066;-77
2022/06/15 03:55:58;;;;;;;6.53;4.20;;;16.20;99.90;;;;;;4948694;29;20043;-80
2022/06/15 03:58:24;;;;;;;8.93;4.22;;;16.20;99.90;;;;;;4941400;29;20090;-79
2022/06/15 04:00:53;;;;;;;9.57;4.00;;;16.20;99.90;;;;;;4924938;29;20031;-79
2022/06/15 04:03:23;;;;;;;6.32;3.85;;;16.40;99.90;;;;;;4925917;29;20116;-78
2022/06/15 04:05:58;;;;;;;;;;;16.50;99.90;;;;;;4928670;29;20075;-80
2022/06/15 04:08:39;;;;;;;9.05;3.97;;;16.60;99.90;;;;;;4937601;28;19941;-77
2022/06/15 04:14:06;;;;;;;7.60;4.15;;;16.70;99.90;;;;;;4927059;29;20018;-77
2022/06/15 04:16:35;;;;;;;8.18;4.45;;;16.70;99.90;;;;;;4925182;29;20083;-78
2022/06/15 04:19:03;;;;;;;8.25;4.03;;;16.80;99.90;;;;;;4915445;29;20023;-79
2022/06/15 04:21:30;;;;;;;10.63;4.25;;;16.80;99.90;;;;;;4916587;29;20086;-78
2022/06/15 04:23:56;;;;;;;8.18;3.65;;;16.90;99.90;;;;;;4943325;29;20043;-78
2022/06/15 04:26:22;;;;;;;9.15;4.50;;;16.90;99.90;;;;;;4933250;29;20016;-78
2022/06/15 04:28:49;;;;;;;9.30;4.60;;;16.90;99.90;;;;;;4934235;29;20032;-78
2022/06/15 04:31:22;;;;;;;11.07;4.32;;;17.00;99.90;;;;;;4935662;29;20099;-79
2022/06/15 04:33:48;;;;;;;8.27;4.30;;;17.00;99.90;;;;;;4907636;29;20046;-78
2022/06/15 04:36:15;;;;;;;6.43;4.05;;;17.10;99.90;;;;;;4921751;29;20035;-79
2022/06/15 04:38:45;;;;;;;7.75;4.05;;;17.30;99.90;;;;;;4922258;29;20031;-79
2022/06/15 04:41:12;;;;;;;8.63;3.83;;;17.40;99.90;;;;;;4922506;29;20567;-79
2022/06/15 04:43:38;;;;;;;7.78;3.00;;;17.60;99.90;;;;;;4939066;29;20024;-80
2022/06/15 04:46:10;;;;;;;11.07;4.15;;;18.10;99.90;;;;;;4922609;29;20127;-80
2022/06/15 04:48:36;;;;;;;6.05;3.63;;;18.20;99.90;;;;;;4923536;29;20099;-79
2022/06/15 04:51:17;;;;;;;8.63;3.80;;;18.40;99.90;;;;;;4923392;29;20019;-79
2022/06/15 04:53:50;;;;;;;10.85;3.10;;;18.90;99.90;;;;;;4919249;29;20522;-79
2022/06/15 04:56:17;;;;;;;6.82;3.20;;;19.50;99.90;;;;;;4946906;29;20072;-79
2022/06/15 04:58:46;;;;;;;10.20;3.22;;;19.70;99.90;;;;;;4926467;29;20079;-80
2022/06/15 05:01:14;;;;;;;6.82;3.10;;;19.60;99.90;;;;;;4902959;29;20156;-79
2022/06/15 05:03:41;;;;;;;12.00;4.32;;;19.40;99.90;;;;;;4916498;29;20108;-79
2022/06/15 05:06:31;;;;;;;9.70;4.35;;;19.00;99.90;;;;;;4932990;29;20012;-80
2022/06/15 05:08:58;;;;;;;7.53;3.88;;;18.80;99.90;;;;;;4924403;29;20440;-79
2022/06/15 05:11:26;;;;;;;5.90;3.80;;;18.60;99.90;;;;;;4937060;29;20061;-81
2022/06/15 05:13:53;;;;;;;11.10;3.60;;;18.30;99.90;;;;;;4925852;29;20024;-79
2022/06/15 05:16:19;;;;;;;4.80;3.10;;;18.40;99.90;;;;;;4949151;28;20063;-79
2022/06/15 05:18:47;;;;;;;8.70;3.50;;;18.30;99.90;;;;;;4945167;28;20032;-82
2022/06/15 05:21:19;;;;;;;7.65;3.25;;;18.50;99.90;;;;;;4944079;28;20012;-80
2022/06/15 05:23:45;;;;;;;11.43;3.75;;;18.70;99.90;;;;;;4951524;29;20050;-81
2022/06/15 05:26:15;;;;;;;8.10;4.20;;;19.00;99.90;;;;;;4928038;29;20024;-80
2022/06/15 05:28:45;;;;;;;6.82;3.78;;;18.90;99.90;;;;;;4937739;29;20083;-79
2022/06/15 05:31:18;;;;;;;11.82;5.43;;;18.70;99.90;;;;;;4935633;29;20028;-81
2022/06/15 05:33:54;;;;;;;8.65;4.10;;;18.70;99.90;;;;;;4922620;29;20031;-79
2022/06/15 05:36:31;;;;;;;9.05;4.40;;;18.90;99.90;;;;;;4932871;29;20594;-80
2022/06/15 05:38:57;;;;;;;13.30;4.78;;;18.90;99.90;;;;;;4929556;29;20055;-78
2022/06/15 05:41:24;;;;;;;11.38;4.45;;;18.90;99.90;;;;;;4936366;29;20032;-80
2022/06/15 05:43:53;;;;;;;12.30;4.45;;;18.90;99.90;;;;;;4935445;29;20046;-78
2022/06/15 05:46:22;;;;;;;13.63;5.10;;;18.90;99.90;;;;;;4933607;29;20062;-78
2022/06/15 05:48:49;;;;;;;14.95;4.53;;;19.00;99.90;;;;;;4935149;29;20015;-77
2022/06/15 05:51:20;;;;;;;10.70;3.42;;;19.00;99.90;;;;;;4934469;29;20031;-80
2022/06/15 05:53:46;;;;;;;9.77;4.15;;;19.10;99.90;;;;;;4934645;29;20032;-79
2022/06/15 05:56:12;;;;;;;14.02;6.57;;;19.40;99.90;;;;;;4951167;29;20030;-78
2022/06/15 05:58:38;;;;;;;12.88;6.18;;;19.70;99.90;;;;;;4932623;29;20028;-78
2022/06/15 06:01:08;;;;;;;10.07;4.43;;;19.60;99.90;;;;;;4933224;29;20030;-80
2022/06/15 06:03:35;;;;;;;11.98;5.18;;;19.60;99.90;;;;;;4953316;29;20047;-79
2022/06/15 06:06:01;;;;;;;9.30;4.78;;;19.80;99.90;;;;;;4951720;29;20461;-81
2022/06/15 06:08:26;;;;;;;11.98;5.15;;;19.90;99.90;;;;;;4953547;29;20023;-79
2022/06/15 06:10:52;;;;;;;13.60;5.78;;;20.10;99.90;;;;;;4957406;28;20020;-80
2022/06/15 06:13:18;;;;;;;11.20;5.60;;;20.10;99.90;;;;;;4943812;28;20056;-80
2022/06/15 06:15:43;;;;;;;11.90;4.30;;;20.20;99.90;;;;;;4957564;28;20076;-81
2022/06/15 06:18:09;;;;;;;15.75;5.15;;;20.20;99.90;;;;;;4944258;28;20057;-80
2022/06/15 06:20:35;;;;;;;12.05;4.47;;;20.30;99.90;;;;;;4944223;28;20028;-79
2022/06/15 06:23:01;;;;;;;8.90;4.53;;;20.00;99.90;;;;;;4943629;28;20035;-81
2022/06/15 06:25:28;;;;;;;9.77;4.70;;;19.70;99.90;;;;;;4960998;28;20016;-80
2022/06/15 06:27:54;;;;;;;7.53;4.10;;;19.80;99.90;;;;;;4961208;28;20091;-81
2022/06/15 06:30:21;;;;;;;14.50;5.53;;;19.90;99.90;;;;;;4961562;28;20023;-80
2022/06/15 06:32:50;;;;;;;12.70;5.40;;;19.90;99.90;;;;;;4961562;28;20060;-80
2022/06/15 06:35:16;;;;;;;11.77;4.72;;;19.90;99.90;;;;;;4961465;28;20016;-80
2022/06/15 06:37:44;;;;;;;10.75;4.25;;;19.80;99.90;;;;;;4961115;28;20035;-80
2022/06/15 06:40:14;;;;;;;12.68;4.88;;;20.00;99.90;;;;;;4960982;28;20091;-80
2022/06/15 06:42:40;;;;;;;12.73;5.95;;;20.10;99.90;;;;;;4960086;28;20091;-79
2022/06/15 06:45:06;;;;;;;14.75;6.22;;;20.20;99.90;;;;;;4960057;28;20032;-79
2022/06/15 06:47:32;;;;;;;14.57;6.97;;;20.20;99.90;;;;;;4960273;28;20078;-82
2022/06/15 06:49:57;;;;;;;16.27;8.82;;;20.20;99.90;;;;;;4944557;28;20012;-88
2022/06/15 06:52:26;;;;;;;16.30;8.63;;;20.10;99.90;;;;;;4960568;28;20036;-85
2022/06/15 06:54:52;;;;;;;17.73;8.45;;;20.10;99.90;;;;;;4941786;28;20396;-85
2022/06/15 06:57:18;;;;;;;18.48;7.82;;;20.10;99.90;;;;;;4956507;29;20020;-86
2022/06/15 06:59:45;;;;;;;20.40;10.65;;;20.00;99.90;;;;;;4957245;29;20023;-85
2022/06/15 07:02:19;;;;;;;20.38;11.75;;;20.10;99.90;;;;;;4937221;29;20035;-86
2022/06/15 07:04:46;;;;;;;;;;;20.20;99.90;;;;;;4949728;29;20028;-84
2022/06/15 07:11:09;;;;;;;17.35;8.88;;;20.30;99.90;;;;;;4872548;29;20123;-86
2022/06/15 07:13:35;;;;;;;23.30;9.73;;;20.30;99.90;;;;;;4947016;29;20046;-86
2022/06/15 07:16:05;;;;;;;19.13;9.88;;;20.30;99.90;;;;;;4947617;29;20099;-86
2022/06/15 07:18:31;;;;;;;14.52;8.23;;;20.40;99.90;;;;;;4939370;29;20028;-87
2022/06/15 07:21:05;;;;;;;13.73;7.80;;;20.40;99.90;;;;;;4927190;29;20027;-86
2022/06/15 07:23:32;;;;;;;19.00;8.15;;;20.60;99.90;;;;;;4934726;29;20123;-87
2022/06/15 07:26:01;;;;;;;17.15;7.40;;;20.70;99.90;;;;;;4939822;29;20068;-85
2022/06/15 07:28:28;;;;;;;13.27;7.07;;;20.70;99.90;;;;;;4946330;29;20440;-87
2022/06/15 07:30:54;;;;;;;18.48;7.95;;;20.80;99.90;;;;;;4914850;29;20039;-87
2022/06/15 07:33:20;;;;;;;16.27;7.38;;;21.00;99.90;;;;;;4952392;29;20019;-86
2022/06/15 07:35:46;;;;;;;17.80;7.00;;;21.20;99.90;;;;;;4956645;29;20020;-86
2022/06/15 07:38:12;;;;;;;16.92;6.32;;;21.00;99.90;;;;;;4958048;28;20092;-87
2022/06/15 07:40:38;;;;;;;14.57;7.00;;;21.10;99.90;;;;;;4956170;28;20056;-85
2022/06/15 07:43:04;;;;;;;18.13;6.80;;;21.20;99.90;;;;;;4947923;29;20036;-86
2022/06/15 07:45:30;;;;;;;15.90;6.60;;;21.20;99.90;;;;;;4947031;29;20024;-86
2022/06/15 07:50:42;;;;;;;18.02;5.82;;;21.20;99.90;;;;;;4929521;29;20126;-86
2022/06/15 07:53:10;;;;;;;11.07;5.25;;;21.10;99.90;;;;;;4912532;29;20547;-85
2022/06/15 07:55:39;;;;;;;15.40;5.32;;;21.10;99.90;;;;;;4929708;29;20031;-86
2022/06/15 07:58:06;;;;;;;11.52;5.45;;;21.10;99.90;;;;;;4953098;29;20132;-87
2022/06/15 08:00:33;;;;;;;14.40;5.50;;;21.20;99.90;;;;;;4948597;29;20040;-87
2022/06/15 08:03:01;;;;;;;15.85;5.60;;;21.50;99.90;;;;;;4945817;29;20063;-86
2022/06/15 08:05:29;;;;;;;12.32;4.95;;;21.50;99.90;;;;;;4946227;29;20055;-86
2022/06/15 08:07:55;;;;;;;12.32;6.00;;;21.60;99.90;;;;;;4928420;29;20102;-86
2022/06/15 08:10:24;;;;;;;13.07;5.60;;;21.70;99.90;;;;;;4919830;29;20075;-85
2022/06/15 08:12:52;;;;;;;11.23;4.60;;;21.90;99.90;;;;;;4957030;28;20008;-86
2022/06/15 08:15:18;;;;;;;10.82;4.80;;;22.20;99.90;;;;;;4942310;28;20083;-88
2022/06/15 08:17:54;;;;;;;13.65;5.28;;;22.30;99.70;;;;;;4943198;28;20020;-86
2022/06/15 08:20:25;;;;;;;14.23;6.15;;;22.40;99.70;;;;;;4959839;28;20100;-86
2022/06/15 08:22:55;;;;;;;11.98;4.90;;;22.60;99.10;;;;;;4942967;28;20059;-87
2022/06/15 08:25:26;;;;;;;11.73;4.30;;;22.80;98.80;;;;;;4959879;28;20059;-88
2022/06/15 08:27:54;;;;;;;12.02;4.47;;;23.00;98.60;;;;;;4925762;29;20031;-87
2022/06/15 08:30:20;;;;;;;15.98;4.47;;;23.10;98.10;;;;;;4932510;29;20537;-86
2022/06/15 08:32:45;;;;;;;9.90;4.07;;;23.30;98.10;;;;;;4946889;29;20024;-85
2022/06/15 08:35:12;;;;;;;12.15;4.20;;;23.40;98.00;;;;;;4956078;28;20046;-86
2022/06/15 08:37:38;;;;;;;11.05;3.53;;;23.50;97.10;;;;;;4927410;28;20031;-87
2022/06/15 08:40:05;;;;;;;13.02;4.10;;;23.60;97.20;;;;;;4959760;28;20020;-86
2022/06/15 08:42:37;;;;;;;7.40;3.92;;;23.80;96.80;;;;;;4927043;28;20032;-87
2022/06/15 08:45:18;;;;;;;12.63;3.67;;;23.90;96.60;;;;;;4955463;28;20031;-86
2022/06/15 08:48:11;;;;;;;8.73;4.20;;;24.00;96.20;;;;;;4932138;29;20032;-85
2022/06/15 08:50:47;;;;;;;11.07;3.63;;;24.10;96.10;;;;;;4934911;29;20107;-86
2022/06/15 08:53:24;;;;;;;7.65;3.70;;;24.20;95.70;;;;;;4953613;28;20042;-86
2022/06/15 08:55:59;;;;;;;8.77;2.92;;;24.40;95.60;;;;;;4933800;29;20063;-87
2022/06/15 08:58:45;;;;;;;7.60;3.83;;;24.40;94.10;;;;;;4937954;28;20039;-87
2022/06/15 09:01:19;;;;;;;6.53;3.50;;;24.30;94.70;;;;;;4945771;28;20031;-87
2022/06/15 09:04:06;;;;;;;12.15;4.82;;;24.20;95.00;;;;;;4945577;28;20047;-86
2022/06/15 09:07:09;;;;;;;11.57;4.60;;;24.30;95.00;;;;;;4945813;28;20051;-87
2022/06/15 09:09:52;;;;;;;9.15;3.90;;;24.40;95.00;;;;;;4957612;29;20023;-86
2022/06/15 09:12:50;;;;;;;7.40;3.67;;;24.40;95.00;;;;;;4951183;29;20042;-86
2022/06/15 09:31:57;;;;;;;12.95;3.65;;;24.60;94.00;;;;;;5017814;23;20069;-91
2022/06/15 09:36:59;;;;;;;11.15;3.25;;;24.50;94.30;;;;;;5323008;23;20079;-91
2022/06/15 09:39:28;;;;;;;8.02;4.15;;;24.40;93.50;;;;;;5177324;23;20062;-91
2022/06/15 09:47:45;;;;;;;8.73;3.72;;;25.10;93.10;;;;;;5221977;23;20046;-91
2022/06/15 09:50:23;;;;;;;16.73;4.13;;;25.50;92.80;;;;;;5138048;23;20043;-92
2022/06/15 10:19:46;;;;;;;7.75;3.22;;;31.60;80.80;;;;;;4861046;23;20079;-91
2022/06/15 10:22:25;;;;;;;12.48;3.50;;;32.20;77.80;;;;;;4961338;28;20020;-91
2022/06/15 10:24:53;;;;;;;9.23;4.18;;;31.80;75.80;;;;;;4961380;28;20048;-90
2022/06/15 10:27:24;;;;;;;10.05;3.53;;;31.90;75.20;;;;;;4959376;28;20035;-89
2022/06/15 10:29:57;;;;;;;7.38;3.10;;;32.30;74.20;;;;;;4961148;28;20024;-90
2022/06/15 10:32:25;;;;;;;6.25;3.30;;;33.30;72.00;;;;;;4961518;28;20032;-92
2022/06/15 10:35:02;;;;;;;7.03;3.75;;;34.20;69.30;;;;;;4961511;28;20075;-91
2022/06/15 10:37:51;;;;;;;7.38;3.08;;;35.00;67.60;;;;;;4961624;28;20023;-92
2022/06/15 10:40:29;;;;;;;5.53;3.15;;;36.30;65.30;;;;;;5037857;23;20032;-92
2022/06/15 10:43:06;;;;;;;8.85;3.83;;;36.80;63.40;;;;;;4963027;29;20023;-92
2022/06/15 10:45:44;;;;;;;5.53;3.50;;;36.80;61.80;;;;;;4962222;28;20047;-91
2022/06/15 10:48:15;;;;;;;6.68;2.97;;;37.40;61.10;;;;;;5103391;23;20048;-91
2022/06/15 11:02:07;;;;;;;7.35;2.70;;;39.30;56.10;;;;;;4959223;28;20044;-92
2022/06/15 11:04:49;;;;;;;8.23;3.28;;;38.50;55.10;;;;;;5433569;23;20044;-91
2022/06/15 11:07:22;;;;;;;8.23;2.67;;;37.70;56.50;;;;;;4982997;23;20036;-91
2022/06/15 11:09:54;;;;;;;10.82;3.22;;;38.10;55.60;;;;;;4941302;29;20063;-90
2022/06/15 11:12:40;;;;;;;6.93;2.75;;;38.30;54.70;;;;;;4958005;28;20034;-91
2022/06/15 11:18:01;;;;;;;6.32;2.58;;;37.90;54.60;;;;;;4959953;28;20031;-92
2022/06/15 11:18:22;;;;;;;6.53;2.50;;;37.50;55.20;;;;;;4959009;28;20051;-91
2022/06/15 11:21:15;;;;;;;4.95;2.55;;;38.20;54.50;;;;;;4956954;29;20114;-92
2022/06/15 11:24:03;;;;;;;6.88;2.58;;;39.10;53.60;;;;;;4953315;29;20036;-90
2022/06/15 11:26:54;;;;;;;8.45;2.97;;;39.20;53.30;;;;;;4938079;29;20103;-90
2022/06/15 11:32:02;;;;;;;11.30;3.40;;;38.70;52.90;;;;;;4991240;23;20047;-90
2022/06/15 11:34:45;;;;;;;6.65;3.30;;;38.20;53.40;;;;;;4957904;28;20026;-91
2022/06/15 11:37:21;;;;;;;7.35;2.83;;;37.90;53.90;;;;;;4958697;28;20053;-89
2022/06/15 11:42:25;;;;;;;5.22;2.40;;;38.80;52.60;;;;;;4981126;23;20067;-91
2022/06/15 11:44:52;;;;;;;4.05;2.10;;;39.50;51.70;;;;;;5000847;23;20024;-89
2022/06/15 11:47:49;;;;;;;9.30;3.20;;;40.50;50.70;;;;;;4940846;29;20089;-91
2022/06/15 11:50:31;;;;;;;6.43;2.88;;;40.90;49.80;;;;;;4941355;29;20084;-91
2022/06/15 11:53:20;;;;;;;6.68;3.00;;;40.10;50.80;;;;;;4940360;29;20032;-90
2022/06/15 11:56:00;;;;;;;8.85;2.92;;;40.10;50.80;;;;;;4938851;29;20020;-91
2022/06/15 11:58:32;;;;;;;6.78;2.75;;;39.90;51.00;;;;;;4938036;29;20491;-90
2022/06/15 12:01:24;;;;;;;7.20;2.83;;;39.20;51.20;;;;;;4939333;29;20024;-90
2022/06/15 12:04:13;;;;;;;11.38;3.65;;;39.20;51.60;;;;;;4934852;29;20040;-90
2022/06/15 12:07:04;;;;;;;8.05;2.78;;;40.20;50.90;;;;;;4924631;29;20100;-90
2022/06/15 12:09:36;;;;;;;13.23;2.90;;;40.50;50.50;;;;;;4934829;29;20051;-90
2022/06/15 12:12:38;;;;;;;10.75;3.50;;;40.10;51.00;;;;;;4934885;29;20048;-88
2022/06/15 12:15:26;;;;;;;6.55;2.63;;;40.40;50.90;;;;;;4955349;28;20055;-90
2022/06/15 12:18:20;;;;;;;5.38;3.10;;;40.10;50.70;;;;;;4934251;29;20071;-89
2022/06/15 12:20:52;;;;;;;11.15;3.08;;;40.40;50.70;;;;;;4930580;29;20036;-90
2022/06/15 12:23:32;;;;;;;6.13;2.58;;;40.70;50.20;;;;;;4937198;29;20020;-91
2022/06/15 12:26:13;;;;;;;5.20;2.90;;;40.80;50.30;;;;;;4940348;29;20020;-92
2022/06/15 12:28:55;;;;;;;4.45;2.47;;;40.80;50.00;;;;;;4938348;29;20043;-90
2022/06/15 12:31:55;;;;;;;7.05;2.63;;;40.10;50.10;;;;;;4933612;29;20052;-89
2022/06/15 12:34:49;;;;;;;6.55;2.95;;;39.00;50.70;;;;;;4938026;29;20125;-90
2022/06/15 12:37:36;;;;;;;4.68;2.60;;;37.20;52.10;;;;;;4955056;28;20096;-92
2022/06/15 12:40:19;;;;;;;5.93;2.65;;;36.90;52.90;;;;;;4939518;29;20044;-90
2022/06/15 12:42:49;;;;;;;5.63;2.47;;;38.10;52.40;;;;;;4923972;29;20055;-90
2022/06/15 12:45:28;;;;;;;7.50;3.15;;;39.10;51.60;;;;;;4934648;29;20522;-89
2022/06/15 12:47:58;;;;;;;7.43;3.00;;;39.70;51.20;;;;;;4932741;29;20051;-90
2022/06/15 12:50:42;;;;;;;11.57;2.80;;;39.60;50.70;;;;;;4947606;29;20472;-91
2022/06/15 12:53:34;;;;;;;6.40;2.70;;;39.20;51.20;;;;;;4933126;29;20056;-90
2022/06/15 12:56:21;;;;;;;6.00;3.03;;;39.20;51.50;;;;;;4911873;29;20080;-90
2022/06/15 12:59:08;;;;;;;6.07;2.72;;;39.90;51.00;;;;;;4935782;29;20016;-91
2022/06/15 13:02:03;;;;;;;7.63;3.10;;;40.70;50.20;;;;;;4938482;29;20047;-90
2022/06/15 13:05:09;;;;;;;6.70;3.00;;;41.50;49.60;;;;;;4936949;29;20120;-89
2022/06/15 13:07:38;;;;;;;5.82;2.80;;;40.90;48.90;;;;;;4937814;29;20044;-91
2022/06/15 13:10:07;;;;;;;7.78;3.13;;;39.90;50.20;;;;;;4955644;28;20004;-92
2022/06/15 13:12:42;;;;;;;6.55;3.03;;;39.70;50.50;;;;;;4939791;29;20036;-92
2022/06/15 13:15:37;;;;;;;5.65;3.13;;;39.90;50.30;;;;;;4940095;29;20043;-90
2022/06/15 13:18:09;;;;;;;9.68;2.90;;;40.50;49.90;;;;;;4955617;28;20024;-92
2022/06/15 13:20:48;;;;;;;9.60;3.35;;;40.00;49.50;;;;;;4956017;28;20060;-90
2022/06/15 13:23:51;;;;;;;7.78;2.90;;;40.40;49.30;;;;;;5006387;23;20065;-91
2022/06/15 13:26:20;;;;;;;9.18;3.28;;;40.70;49.60;;;;;;4934957;28;20044;-89
2022/06/15 13:29:01;;;;;;;9.48;3.00;;;40.50;49.70;;;;;;4953366;29;20024;-89
2022/06/15 13:31:48;;;;;;;7.40;3.22;;;40.70;49.40;;;;;;4958394;28;20159;-89
2022/06/15 13:34:38;;;;;;;7.03;2.80;;;41.30;49.20;;;;;;4945490;28;20052;-91
2022/06/15 13:37:16;;;;;;;8.57;3.83;;;42.00;48.90;;;;;;4933443;28;20059;-90
2022/06/15 13:39:57;;;;;;;4.53;2.35;;;41.60;48.90;;;;;;4961765;28;20057;-91
2022/06/15 13:42:46;;;;;;;5.35;2.60;;;42.00;48.50;;;;;;4962766;28;20083;-89
2022/06/15 13:45:21;;;;;;;9.23;2.72;;;41.20;47.40;;;;;;4958040;29;20051;-90
2022/06/15 13:48:12;;;;;;;5.20;2.50;;;40.70;48.70;;;;;;4959149;28;20042;-91
2022/06/15 13:50:49;;;;;;;6.10;2.80;;;40.60;48.70;;;;;;4960496;28;20345;-90
2022/06/15 13:53:34;;;;;;;8.60;2.92;;;39.70;49.20;;;;;;4961235;28;20107;-90
2022/06/15 13:56:12;;;;;;;4.07;2.72;;;39.80;49.50;;;;;;4961005;28;20043;-90
2022/06/15 13:58:53;;;;;;;6.45;2.63;;;40.40;49.30;;;;;;4961555;28;20051;-90
2022/06/15 14:01:49;;;;;;;3.78;2.72;;;40.90;48.40;;;;;;4961620;28;20067;-91
2022/06/15 14:04:48;;;;;;;7.25;2.47;;;41.30;48.20;;;;;;4961374;28;20083;-90
2022/06/15 14:07:50;;;;;;;6.47;2.42;;;41.10;48.10;;;;;;4960926;28;20028;-90
2022/06/15 14:10:32;;;;;;;6.57;3.30;;;40.50;48.80;;;;;;4961693;28;20023;-90
2022/06/15 14:13:12;;;;;;;4.80;2.63;;;40.40;48.90;;;;;;4961011;28;20043;-90
2022/06/15 14:16:06;;;;;;;9.65;2.75;;;40.10;48.70;;;;;;4961927;28;20032;-91
2022/06/15 14:18:42;;;;;;;4.80;2.75;;;39.20;49.50;;;;;;4961821;28;20024;-90
2022/06/15 14:21:15;;;;;;;6.15;2.63;;;39.20;49.50;;;;;;4960832;28;20020;-91
2022/06/15 14:23:42;;;;;;;6.15;2.72;;;39.90;49.40;;;;;;4960932;28;20043;-91
2022/06/15 14:26:09;;;;;;;7.45;2.58;;;39.90;49.40;;;;;;4945236;28;20034;-92
2022/06/15 14:28:36;;;;;;;10.52;2.53;;;40.00;49.00;;;;;;4960971;28;20043;-89
2022/06/15 14:31:17;;;;;;;5.88;2.15;;;40.50;48.40;;;;;;4957577;28;20039;-89
2022/06/15 14:33:50;;;;;;;6.63;2.58;;;40.40;48.30;;;;;;4957305;29;20063;-91
2022/06/15 14:36:19;;;;;;;4.63;2.30;;;40.00;48.50;;;;;;4957782;28;20040;-90
2022/06/15 14:38:55;;;;;;;8.98;2.33;;;39.20;48.90;;;;;;4943335;29;20024;-89